sensor_id;sensor_type;location;lat;lon;timestamp;pressure;altitude;pressure_sealevel;temperature;humidity
74466;BME280;62916;50.044;15.938;2023-03-07T00:00:18;97855.58;;;19.58;50.66
74466;BME280;62916;50.044;15.938;2023-03-07T00:02:51;97860.52;;;19.57;50.61
74466;BME280;62916;50.044;15.938;2023-03-07T00:05:23;97856.73;;;19.56;50.57
74466;BME280;62916;50.044;15.938;2023-03-07T00:07:56;97856.75;;;19.54;50.67
74466;BME280;62916;50.044;15.938;2023-03-07T00:10:26;97859.31;;;19.55;50.74
74466;BME280;62916;50.044;15.938;2023-03-07T00:12:57;97858.25;;;19.54;50.74
74466;BME280;62916;50.044;15.938;2023-03-07T00:15:29;97858.59;;;19.52;50.68
74466;BME280;62916;50.044;15.938;2023-03-07T00:18:00;97855.20;;;19.49;50.78
74466;BME280;62916;50.044;15.938;2023-03-07T00:20:31;97852.02;;;19.47;50.77
74466;BME280;62916;50.044;15.938;2023-03-07T00:23:02;97849.10;;;19.45;50.85
74466;BME280;62916;50.044;15.938;2023-03-07T00:25:33;97844.73;;;19.43;50.86
74466;BME280;62916;50.044;15.938;2023-03-07T00:28:04;97845.16;;;19.41;50.89
74466;BME280;62916;50.044;15.938;2023-03-07T00:30:35;97841.27;;;19.39;50.88
74466;BME280;62916;50.044;15.938;2023-03-07T00:33:06;97837.70;;;19.36;50.95
74466;BME280;62916;50.044;15.938;2023-03-07T00:35:37;97838.61;;;19.35;50.95
74466;BME280;62916;50.044;15.938;2023-03-07T00:38:08;97833.66;;;19.33;50.99
74466;BME280;62916;50.044;15.938;2023-03-07T00:40:39;97832.10;;;19.32;50.99
74466;BME280;62916;50.044;15.938;2023-03-07T00:43:10;97826.40;;;19.24;51.09
74466;BME280;62916;50.044;15.938;2023-03-07T00:45:40;97833.52;;;19.28;51.14
74466;BME280;62916;50.044;15.938;2023-03-07T00:48:11;97826.34;;;19.25;51.05
74466;BME280;62916;50.044;15.938;2023-03-07T00:50:42;97822.83;;;19.24;51.06
74466;BME280;62916;50.044;15.938;2023-03-07T00:53:14;97823.19;;;19.22;51.16
74466;BME280;62916;50.044;15.938;2023-03-07T00:55:54;97818.40;;;19.21;51.26
74466;BME280;62916;50.044;15.938;2023-03-07T00:58:25;97812.77;;;19.16;51.22
74466;BME280;62916;50.044;15.938;2023-03-07T01:00:56;97812.23;;;19.19;51.20
74466;BME280;62916;50.044;15.938;2023-03-07T01:03:27;97808.13;;;19.19;51.15
74466;BME280;62916;50.044;15.938;2023-03-07T01:05:59;97807.77;;;19.18;51.20
74466;BME280;62916;50.044;15.938;2023-03-07T01:08:31;97805.65;;;19.17;51.22
74466;BME280;62916;50.044;15.938;2023-03-07T01:11:04;97797.93;;;19.15;51.29
74466;BME280;62916;50.044;15.938;2023-03-07T01:13:36;97793.50;;;19.15;51.23
74466;BME280;62916;50.044;15.938;2023-03-07T01:16:14;97794.52;;;19.14;51.25
74466;BME280;62916;50.044;15.938;2023-03-07T01:18:49;97793.63;;;19.13;51.32
74466;BME280;62916;50.044;15.938;2023-03-07T01:21:22;97789.81;;;19.12;51.23
74466;BME280;62916;50.044;15.938;2023-03-07T01:23:54;97787.43;;;19.11;51.27
74466;BME280;62916;50.044;15.938;2023-03-07T01:26:29;97789.11;;;19.11;51.21
74466;BME280;62916;50.044;15.938;2023-03-07T01:29:02;97784.69;;;19.10;51.20
74466;BME280;62916;50.044;15.938;2023-03-07T01:31:34;97780.95;;;19.09;51.20
74466;BME280;62916;50.044;15.938;2023-03-07T01:34:05;97776.96;;;19.08;51.19
74466;BME280;62916;50.044;15.938;2023-03-07T01:36:37;97780.35;;;19.06;51.25
74466;BME280;62916;50.044;15.938;2023-03-07T01:39:09;97779.76;;;19.06;51.31
74466;BME280;62916;50.044;15.938;2023-03-07T01:41:44;97774.66;;;19.05;51.28
74466;BME280;62916;50.044;15.938;2023-03-07T01:44:17;97768.12;;;18.99;51.28
74466;BME280;62916;50.044;15.938;2023-03-07T01:46:53;97763.55;;;18.96;51.30
74466;BME280;62916;50.044;15.938;2023-03-07T01:49:27;97768.66;;;19.03;51.27
74466;BME280;62916;50.044;15.938;2023-03-07T01:52:01;97771.21;;;19.02;51.33
74466;BME280;62916;50.044;15.938;2023-03-07T01:54:35;97771.88;;;19.03;51.27
74466;BME280;62916;50.044;15.938;2023-03-07T01:57:08;97770.58;;;19.02;51.25
74466;BME280;62916;50.044;15.938;2023-03-07T01:59:41;97767.46;;;19.01;51.34
74466;BME280;62916;50.044;15.938;2023-03-07T02:02:16;97770.44;;;19.04;51.28
74466;BME280;62916;50.044;15.938;2023-03-07T02:04:51;97766.96;;;19.03;51.27
74466;BME280;62916;50.044;15.938;2023-03-07T02:07:28;97761.23;;;19.02;51.30
74466;BME280;62916;50.044;15.938;2023-03-07T02:10:01;97761.65;;;19.02;51.35
74466;BME280;62916;50.044;15.938;2023-03-07T02:12:33;97761.58;;;19.02;51.40
74466;BME280;62916;50.044;15.938;2023-03-07T02:15:06;97758.30;;;19.03;51.37
74466;BME280;62916;50.044;15.938;2023-03-07T02:17:38;97758.24;;;19.04;51.46
74466;BME280;62916;50.044;15.938;2023-03-07T02:20:24;97753.61;;;19.04;51.50
74466;BME280;62916;50.044;15.938;2023-03-07T02:22:57;97754.66;;;19.07;51.53
74466;BME280;62916;50.044;15.938;2023-03-07T02:25:33;97753.17;;;19.07;51.56
74466;BME280;62916;50.044;15.938;2023-03-07T02:28:07;97745.86;;;19.05;51.63
74466;BME280;62916;50.044;15.938;2023-03-07T02:30:53;97748.73;;;19.10;51.61
74466;BME280;62916;50.044;15.938;2023-03-07T02:33:24;97746.95;;;19.13;51.60
74466;BME280;62916;50.044;15.938;2023-03-07T02:35:57;97744.88;;;19.16;51.64
74466;BME280;62916;50.044;15.938;2023-03-07T02:38:30;97739.19;;;19.18;51.55
74466;BME280;62916;50.044;15.938;2023-03-07T02:41:02;97741.27;;;19.20;51.62
74466;BME280;62916;50.044;15.938;2023-03-07T02:43:34;97720.24;;;19.07;51.50
74466;BME280;62916;50.044;15.938;2023-03-07T02:46:05;97737.15;;;19.21;51.62
74466;BME280;62916;50.044;15.938;2023-03-07T02:48:36;97738.70;;;19.22;51.64
74466;BME280;62916;50.044;15.938;2023-03-07T02:51:07;97734.80;;;19.23;51.58
74466;BME280;62916;50.044;15.938;2023-03-07T02:53:39;97736.48;;;19.22;51.70
74466;BME280;62916;50.044;15.938;2023-03-07T02:56:09;97729.34;;;19.23;51.70
74466;BME280;62916;50.044;15.938;2023-03-07T02:58:41;97732.89;;;19.24;51.68
74466;BME280;62916;50.044;15.938;2023-03-07T03:01:12;97729.95;;;19.23;51.56
74466;BME280;62916;50.044;15.938;2023-03-07T03:03:43;97730.80;;;19.24;51.66
74466;BME280;62916;50.044;15.938;2023-03-07T03:06:14;97731.80;;;19.25;51.71
74466;BME280;62916;50.044;15.938;2023-03-07T03:08:45;97729.34;;;19.27;51.60
74466;BME280;62916;50.044;15.938;2023-03-07T03:11:15;97725.80;;;19.27;51.51
74466;BME280;62916;50.044;15.938;2023-03-07T03:13:47;97723.52;;;19.27;51.52
74466;BME280;62916;50.044;15.938;2023-03-07T03:16:18;97723.23;;;19.25;51.50
74466;BME280;62916;50.044;15.938;2023-03-07T03:18:50;97719.51;;;19.25;51.56
74466;BME280;62916;50.044;15.938;2023-03-07T03:21:21;97717.55;;;19.23;51.55
74466;BME280;62916;50.044;15.938;2023-03-07T03:23:51;97720.20;;;19.23;51.48
74466;BME280;62916;50.044;15.938;2023-03-07T03:26:22;97716.48;;;19.22;51.59
74466;BME280;62916;50.044;15.938;2023-03-07T03:28:56;97717.70;;;19.21;51.55
74466;BME280;62916;50.044;15.938;2023-03-07T03:31:26;97720.67;;;19.21;51.55
74466;BME280;62916;50.044;15.938;2023-03-07T03:33:59;97719.73;;;19.21;51.60
74466;BME280;62916;50.044;15.938;2023-03-07T03:36:30;97711.86;;;19.21;51.54
74466;BME280;62916;50.044;15.938;2023-03-07T03:39:01;97715.69;;;19.21;51.61
74466;BME280;62916;50.044;15.938;2023-03-07T03:41:32;97715.64;;;19.19;51.62
74466;BME280;62916;50.044;15.938;2023-03-07T03:44:03;97711.97;;;19.18;51.59
74466;BME280;62916;50.044;15.938;2023-03-07T03:46:35;97704.44;;;19.18;51.60
74466;BME280;62916;50.044;15.938;2023-03-07T03:49:06;97704.44;;;19.18;51.59
74466;BME280;62916;50.044;15.938;2023-03-07T03:51:36;97702.83;;;19.18;51.60
74466;BME280;62916;50.044;15.938;2023-03-07T03:54:08;97701.90;;;19.17;51.54
74466;BME280;62916;50.044;15.938;2023-03-07T03:56:38;97697.58;;;19.16;51.54
74466;BME280;62916;50.044;15.938;2023-03-07T03:59:09;97681.37;;;19.07;51.54
74466;BME280;62916;50.044;15.938;2023-03-07T04:01:41;97688.23;;;19.11;51.58
74466;BME280;62916;50.044;15.938;2023-03-07T04:04:12;97684.17;;;19.13;51.60
74466;BME280;62916;50.044;15.938;2023-03-07T04:06:45;97689.99;;;19.12;51.53
74466;BME280;62916;50.044;15.938;2023-03-07T04:09:16;97681.70;;;19.09;51.53
74466;BME280;62916;50.044;15.938;2023-03-07T04:11:47;97680.70;;;19.08;51.55
74466;BME280;62916;50.044;15.938;2023-03-07T04:14:18;97677.47;;;19.06;51.63
74466;BME280;62916;50.044;15.938;2023-03-07T04:16:49;97680.39;;;19.04;51.66
74466;BME280;62916;50.044;15.938;2023-03-07T04:19:21;97676.42;;;19.03;51.63
74466;BME280;62916;50.044;15.938;2023-03-07T04:21:51;97671.70;;;18.99;51.71
74466;BME280;62916;50.044;15.938;2023-03-07T04:24:22;97673.30;;;19.01;51.73
74466;BME280;62916;50.044;15.938;2023-03-07T04:26:53;97667.78;;;19.01;51.74
74466;BME280;62916;50.044;15.938;2023-03-07T04:29:24;97658.35;;;18.94;51.80
74466;BME280;62916;50.044;15.938;2023-03-07T04:31:55;97667.64;;;18.98;51.75
74466;BME280;62916;50.044;15.938;2023-03-07T04:34:26;97666.78;;;18.97;51.92
74466;BME280;62916;50.044;15.938;2023-03-07T04:36:58;97649.70;;;18.89;51.87
74466;BME280;62916;50.044;15.938;2023-03-07T04:39:29;97662.86;;;18.95;51.93
74466;BME280;62916;50.044;15.938;2023-03-07T04:42:00;97661.27;;;18.93;52.05
74466;BME280;62916;50.044;15.938;2023-03-07T04:44:30;97666.77;;;18.92;52.00
74466;BME280;62916;50.044;15.938;2023-03-07T04:47:01;97659.21;;;18.92;52.13
74466;BME280;62916;50.044;15.938;2023-03-07T04:49:32;97660.99;;;18.92;52.11
74466;BME280;62916;50.044;15.938;2023-03-07T04:52:03;97659.41;;;18.92;52.26
74466;BME280;62916;50.044;15.938;2023-03-07T04:54:34;97657.92;;;18.91;52.28
74466;BME280;62916;50.044;15.938;2023-03-07T04:57:05;97657.34;;;18.91;52.40
74466;BME280;62916;50.044;15.938;2023-03-07T04:59:37;97655.95;;;18.90;52.45
74466;BME280;62916;50.044;15.938;2023-03-07T05:02:08;97655.77;;;18.90;52.45
74466;BME280;62916;50.044;15.938;2023-03-07T05:04:41;97656.57;;;18.92;52.38
74466;BME280;62916;50.044;15.938;2023-03-07T05:07:12;97654.75;;;18.91;52.44
74466;BME280;62916;50.044;15.938;2023-03-07T05:09:43;97629.89;;;18.74;52.34
74466;BME280;62916;50.044;15.938;2023-03-07T05:12:13;97651.46;;;18.88;52.46
74466;BME280;62916;50.044;15.938;2023-03-07T05:14:46;97648.55;;;18.86;52.69
74466;BME280;62916;50.044;15.938;2023-03-07T05:17:18;97650.38;;;18.88;52.79
74466;BME280;62916;50.044;15.938;2023-03-07T05:19:49;97651.88;;;18.87;52.61
74466;BME280;62916;50.044;15.938;2023-03-07T05:22:20;97648.28;;;18.85;52.15
74466;BME280;62916;50.044;15.938;2023-03-07T05:24:51;97647.89;;;18.83;51.66
74466;BME280;62916;50.044;15.938;2023-03-07T05:27:22;97647.09;;;18.79;51.22
74466;BME280;62916;50.044;15.938;2023-03-07T05:29:53;97647.73;;;18.77;50.91
74466;BME280;62916;50.044;15.938;2023-03-07T05:32:24;97648.66;;;18.73;50.73
74466;BME280;62916;50.044;15.938;2023-03-07T05:34:55;97647.13;;;18.71;51.08
74466;BME280;62916;50.044;15.938;2023-03-07T05:37:26;97646.27;;;18.71;51.15
74466;BME280;62916;50.044;15.938;2023-03-07T05:39:57;97642.74;;;18.71;51.19
74466;BME280;62916;50.044;15.938;2023-03-07T05:42:28;97640.91;;;18.72;51.13
74466;BME280;62916;50.044;15.938;2023-03-07T05:44:59;97633.92;;;18.70;51.11
74466;BME280;62916;50.044;15.938;2023-03-07T05:47:29;97632.27;;;18.70;51.14
74466;BME280;62916;50.044;15.938;2023-03-07T05:50:00;97632.40;;;18.70;51.06
74466;BME280;62916;50.044;15.938;2023-03-07T05:52:31;97628.08;;;18.68;51.07
74466;BME280;62916;50.044;15.938;2023-03-07T05:55:03;97631.96;;;18.67;51.00
74466;BME280;62916;50.044;15.938;2023-03-07T05:57:33;97625.09;;;18.66;50.97
74466;BME280;62916;50.044;15.938;2023-03-07T06:00:06;97626.12;;;18.65;50.91
74466;BME280;62916;50.044;15.938;2023-03-07T06:02:38;97627.15;;;18.65;50.93
74466;BME280;62916;50.044;15.938;2023-03-07T06:05:09;97624.11;;;18.65;50.90
74466;BME280;62916;50.044;15.938;2023-03-07T06:07:40;97624.20;;;18.66;50.80
74466;BME280;62916;50.044;15.938;2023-03-07T06:10:13;97589.70;;;18.47;50.79
74466;BME280;62916;50.044;15.938;2023-03-07T06:12:44;97624.64;;;18.64;50.76
74466;BME280;62916;50.044;15.938;2023-03-07T06:15:19;97628.73;;;18.65;50.76
74466;BME280;62916;50.044;15.938;2023-03-07T06:17:52;97624.05;;;18.64;50.69
74466;BME280;62916;50.044;15.938;2023-03-07T06:20:23;97624.55;;;18.64;50.59
74466;BME280;62916;50.044;15.938;2023-03-07T06:22:54;97624.91;;;18.63;50.51
74466;BME280;62916;50.044;15.938;2023-03-07T06:25:25;97628.23;;;18.61;50.48
74466;BME280;62916;50.044;15.938;2023-03-07T06:27:56;97635.08;;;18.60;50.55
74466;BME280;62916;50.044;15.938;2023-03-07T06:30:30;97635.15;;;18.58;50.44
74466;BME280;62916;50.044;15.938;2023-03-07T06:33:00;97631.75;;;18.56;50.54
74466;BME280;62916;50.044;15.938;2023-03-07T06:35:31;97636.56;;;18.54;50.53
74466;BME280;62916;50.044;15.938;2023-03-07T06:38:02;97642.04;;;18.52;50.44
74466;BME280;62916;50.044;15.938;2023-03-07T06:40:33;97643.58;;;18.50;50.51
74466;BME280;62916;50.044;15.938;2023-03-07T06:43:04;97640.95;;;18.49;50.54
74466;BME280;62916;50.044;15.938;2023-03-07T06:45:35;97638.77;;;18.47;50.47
74466;BME280;62916;50.044;15.938;2023-03-07T06:48:06;97638.39;;;18.45;50.49
74466;BME280;62916;50.044;15.938;2023-03-07T06:50:38;97628.77;;;18.39;50.64
74466;BME280;62916;50.044;15.938;2023-03-07T06:53:08;97632.20;;;18.40;50.56
74466;BME280;62916;50.044;15.938;2023-03-07T06:55:39;97634.31;;;18.39;50.56
74466;BME280;62916;50.044;15.938;2023-03-07T06:58:10;97639.17;;;18.38;50.47
74466;BME280;62916;50.044;15.938;2023-03-07T07:00:41;97626.50;;;18.32;50.44
74466;BME280;62916;50.044;15.938;2023-03-07T07:03:18;97631.20;;;18.31;50.43
74466;BME280;62916;50.044;15.938;2023-03-07T07:05:50;97634.83;;;18.34;50.34
74466;BME280;62916;50.044;15.938;2023-03-07T07:08:21;97637.27;;;18.35;50.39
74466;BME280;62916;50.044;15.938;2023-03-07T07:10:51;97640.15;;;18.34;50.35
74466;BME280;62916;50.044;15.938;2023-03-07T07:13:22;97639.02;;;18.32;50.26
74466;BME280;62916;50.044;15.938;2023-03-07T07:15:53;97633.09;;;18.30;50.24
74466;BME280;62916;50.044;15.938;2023-03-07T07:18:23;97631.68;;;18.29;50.22
74466;BME280;62916;50.044;15.938;2023-03-07T07:20:56;97631.75;;;18.29;50.19
74466;BME280;62916;50.044;15.938;2023-03-07T07:23:27;97636.73;;;18.27;50.17
74466;BME280;62916;50.044;15.938;2023-03-07T07:25:58;97642.06;;;18.26;50.18
74466;BME280;62916;50.044;15.938;2023-03-07T07:28:28;97640.88;;;18.25;50.21
74466;BME280;62916;50.044;15.938;2023-03-07T07:30:59;97639.16;;;18.24;50.06
74466;BME280;62916;50.044;15.938;2023-03-07T07:33:32;97638.97;;;18.23;50.18
74466;BME280;62916;50.044;15.938;2023-03-07T07:36:07;97637.75;;;18.23;50.12
74466;BME280;62916;50.044;15.938;2023-03-07T07:38:38;97641.25;;;18.22;50.15
74466;BME280;62916;50.044;15.938;2023-03-07T07:41:08;97640.33;;;18.21;50.04
74466;BME280;62916;50.044;15.938;2023-03-07T07:43:39;97642.88;;;18.20;49.97
74466;BME280;62916;50.044;15.938;2023-03-07T07:46:11;97641.03;;;18.18;50.05
74466;BME280;62916;50.044;15.938;2023-03-07T07:48:42;97640.45;;;18.18;49.97
74466;BME280;62916;50.044;15.938;2023-03-07T07:51:16;97640.95;;;18.16;50.00
74466;BME280;62916;50.044;15.938;2023-03-07T07:53:46;97636.92;;;18.14;50.00
74466;BME280;62916;50.044;15.938;2023-03-07T07:56:18;97626.29;;;18.05;49.88
74466;BME280;62916;50.044;15.938;2023-03-07T07:58:48;97640.02;;;18.14;49.84
74466;BME280;62916;50.044;15.938;2023-03-07T08:01:22;97628.02;;;18.14;49.83
74466;BME280;62916;50.044;15.938;2023-03-07T08:03:53;97635.78;;;18.19;49.78
74466;BME280;62916;50.044;15.938;2023-03-07T08:06:25;97632.49;;;18.21;49.61
74466;BME280;62916;50.044;15.938;2023-03-07T08:08:57;97631.70;;;18.24;49.66
74466;BME280;62916;50.044;15.938;2023-03-07T08:11:28;97630.21;;;18.26;49.56
74466;BME280;62916;50.044;15.938;2023-03-07T08:13:59;97622.61;;;18.28;49.58
74466;BME280;62916;50.044;15.938;2023-03-07T08:16:31;97624.71;;;18.31;49.62
74466;BME280;62916;50.044;15.938;2023-03-07T08:19:02;97617.37;;;18.32;49.55
74466;BME280;62916;50.044;15.938;2023-03-07T08:21:33;97618.16;;;18.34;49.55
74466;BME280;62916;50.044;15.938;2023-03-07T08:24:05;97620.21;;;18.35;49.60
74466;BME280;62916;50.044;15.938;2023-03-07T08:26:36;97619.13;;;18.38;49.67
74466;BME280;62916;50.044;15.938;2023-03-07T08:29:07;97616.34;;;18.41;49.64
74466;BME280;62916;50.044;15.938;2023-03-07T08:31:38;97611.17;;;18.42;49.59
74466;BME280;62916;50.044;15.938;2023-03-07T08:34:09;97614.72;;;18.43;49.34
74466;BME280;62916;50.044;15.938;2023-03-07T08:36:40;97614.44;;;18.46;49.34
74466;BME280;62916;50.044;15.938;2023-03-07T08:39:10;97614.20;;;18.48;49.21
74466;BME280;62916;50.044;15.938;2023-03-07T08:41:41;97608.97;;;18.50;49.08
74466;BME280;62916;50.044;15.938;2023-03-07T08:44:12;97610.78;;;18.51;48.97
74466;BME280;62916;50.044;15.938;2023-03-07T08:46:43;97608.19;;;18.52;49.07
74466;BME280;62916;50.044;15.938;2023-03-07T08:49:14;97609.73;;;18.53;49.00
74466;BME280;62916;50.044;15.938;2023-03-07T08:51:47;97609.80;;;18.55;49.01
74466;BME280;62916;50.044;15.938;2023-03-07T08:54:18;97605.50;;;18.56;48.90
74466;BME280;62916;50.044;15.938;2023-03-07T08:56:49;97605.57;;;18.57;48.96
74466;BME280;62916;50.044;15.938;2023-03-07T08:59:20;97605.60;;;18.58;48.77
74466;BME280;62916;50.044;15.938;2023-03-07T09:01:51;97607.86;;;18.59;48.53
74466;BME280;62916;50.044;15.938;2023-03-07T09:04:22;97581.20;;;18.47;48.63
74466;BME280;62916;50.044;15.938;2023-03-07T09:06:53;97604.30;;;18.63;48.43
74466;BME280;62916;50.044;15.938;2023-03-07T09:09:25;97596.68;;;18.61;48.50
74466;BME280;62916;50.044;15.938;2023-03-07T09:11:57;97589.16;;;18.58;48.23
74466;BME280;62916;50.044;15.938;2023-03-07T09:14:28;97594.70;;;18.66;48.30
74466;BME280;62916;50.044;15.938;2023-03-07T09:16:59;97587.08;;;18.68;48.23
74466;BME280;62916;50.044;15.938;2023-03-07T09:19:30;97582.98;;;18.68;48.30
74466;BME280;62916;50.044;15.938;2023-03-07T09:22:01;97571.13;;;18.68;48.18
74466;BME280;62916;50.044;15.938;2023-03-07T09:24:32;97568.18;;;18.69;48.04
74466;BME280;62916;50.044;15.938;2023-03-07T09:27:03;97565.11;;;18.70;48.00
74466;BME280;62916;50.044;15.938;2023-03-07T09:29:34;97564.57;;;18.71;47.91
74466;BME280;62916;50.044;15.938;2023-03-07T09:32:06;97566.32;;;18.71;47.91
74466;BME280;62916;50.044;15.938;2023-03-07T09:34:37;97560.71;;;18.71;47.81
74466;BME280;62916;50.044;15.938;2023-03-07T09:37:08;97559.94;;;18.72;47.81
74466;BME280;62916;50.044;15.938;2023-03-07T09:39:39;97562.31;;;18.74;47.68
74466;BME280;62916;50.044;15.938;2023-03-07T09:42:18;97554.40;;;18.75;47.65
74466;BME280;62916;50.044;15.938;2023-03-07T09:45:10;97551.50;;;18.74;47.46
74466;BME280;62916;50.044;15.938;2023-03-07T09:48:01;97557.55;;;18.73;47.44
74466;BME280;62916;50.044;15.938;2023-03-07T09:50:46;97556.64;;;18.71;47.37
74466;BME280;62916;50.044;15.938;2023-03-07T09:53:23;97554.83;;;18.72;47.28
74466;BME280;62916;50.044;15.938;2023-03-07T09:56:02;97551.11;;;18.68;47.24
74466;BME280;62916;50.044;15.938;2023-03-07T09:58:40;97554.10;;;18.70;47.03
74466;BME280;62916;50.044;15.938;2023-03-07T10:01:15;97557.02;;;18.69;46.97
74466;BME280;62916;50.044;15.938;2023-03-07T10:03:55;97552.70;;;18.67;47.06
74466;BME280;62916;50.044;15.938;2023-03-07T10:06:31;97549.33;;;18.67;46.96
74466;BME280;62916;50.044;15.938;2023-03-07T10:09:06;97547.27;;;18.65;46.91
74466;BME280;62916;50.044;15.938;2023-03-07T10:12:03;97537.15;;;18.59;46.81
74466;BME280;62916;50.044;15.938;2023-03-07T10:14:53;97542.08;;;18.65;46.92
74466;BME280;62916;50.044;15.938;2023-03-07T10:17:36;97538.81;;;18.65;46.76
74466;BME280;62916;50.044;15.938;2023-03-07T10:20:20;97535.83;;;18.65;46.74
74466;BME280;62916;50.044;15.938;2023-03-07T10:23:00;97538.98;;;18.63;46.72
74466;BME280;62916;50.044;15.938;2023-03-07T10:25:38;97529.10;;;18.56;46.74
74466;BME280;62916;50.044;15.938;2023-03-07T10:28:21;97539.81;;;18.59;46.80
74466;BME280;62916;50.044;15.938;2023-03-07T10:30:59;97530.73;;;18.50;46.69
74466;BME280;62916;50.044;15.938;2023-03-07T10:33:32;97531.95;;;18.55;46.67
74466;BME280;62916;50.044;15.938;2023-03-07T10:36:09;97533.31;;;18.54;46.80
74466;BME280;62916;50.044;15.938;2023-03-07T10:38:47;97527.70;;;18.51;46.84
74466;BME280;62916;50.044;15.938;2023-03-07T10:41:21;97522.96;;;18.49;46.87
74466;BME280;62916;50.044;15.938;2023-03-07T10:43:54;97518.95;;;18.47;46.94
74466;BME280;62916;50.044;15.938;2023-03-07T10:46:28;97517.73;;;18.46;46.89
74466;BME280;62916;50.044;15.938;2023-03-07T10:49:08;97520.61;;;18.44;46.93
74466;BME280;62916;50.044;15.938;2023-03-07T10:51:49;97511.06;;;18.40;47.09
74466;BME280;62916;50.044;15.938;2023-03-07T10:54:27;97510.30;;;18.41;47.05
74466;BME280;62916;50.044;15.938;2023-03-07T10:57:09;97503.92;;;18.42;47.12
74466;BME280;62916;50.044;15.938;2023-03-07T10:59:42;97502.74;;;18.40;46.99
74466;BME280;62916;50.044;15.938;2023-03-07T11:02:31;97497.96;;;18.38;46.98
74466;BME280;62916;50.044;15.938;2023-03-07T11:05:24;97494.45;;;18.37;47.05
74466;BME280;62916;50.044;15.938;2023-03-07T11:07:57;97487.95;;;18.35;47.05
74466;BME280;62916;50.044;15.938;2023-03-07T11:10:33;97480.26;;;18.35;47.10
74466;BME280;62916;50.044;15.938;2023-03-07T11:13:15;97481.46;;;18.33;47.08
74466;BME280;62916;50.044;15.938;2023-03-07T11:15:46;97478.30;;;18.31;47.13
74466;BME280;62916;50.044;15.938;2023-03-07T11:18:28;97473.95;;;18.31;47.07
74466;BME280;62916;50.044;15.938;2023-03-07T11:21:00;97473.95;;;18.31;47.15
74466;BME280;62916;50.044;15.938;2023-03-07T11:23:31;97440.42;;;18.14;47.10
74466;BME280;62916;50.044;15.938;2023-03-07T11:26:20;97465.70;;;18.29;47.13
74466;BME280;62916;50.044;15.938;2023-03-07T11:29:05;97461.53;;;18.27;47.20
74466;BME280;62916;50.044;15.938;2023-03-07T11:31:44;97462.83;;;18.25;47.21
74466;BME280;62916;50.044;15.938;2023-03-07T11:34:26;97457.94;;;18.25;47.05
74466;BME280;62916;50.044;15.938;2023-03-07T11:37:14;97454.41;;;18.25;47.18
74466;BME280;62916;50.044;15.938;2023-03-07T11:39:54;97446.98;;;18.19;47.25
74466;BME280;62916;50.044;15.938;2023-03-07T11:42:32;97450.13;;;18.22;47.32
74466;BME280;62916;50.044;15.938;2023-03-07T11:45:20;97450.54;;;18.20;47.22
74466;BME280;62916;50.044;15.938;2023-03-07T11:48:03;97444.20;;;18.20;47.25
74466;BME280;62916;50.044;15.938;2023-03-07T11:50:36;97441.20;;;18.19;47.26
74466;BME280;62916;50.044;15.938;2023-03-07T11:53:26;97438.23;;;18.17;47.30
74466;BME280;62916;50.044;15.938;2023-03-07T11:56:08;97434.56;;;18.16;47.40
74466;BME280;62916;50.044;15.938;2023-03-07T11:59:01;97421.96;;;18.11;47.43
74466;BME280;62916;50.044;15.938;2023-03-07T12:01:41;97395.15;;;17.94;47.44
74466;BME280;62916;50.044;15.938;2023-03-07T12:04:47;97422.36;;;18.15;47.40
74466;BME280;62916;50.044;15.938;2023-03-07T12:07:33;97418.47;;;18.14;47.33
74466;BME280;62916;50.044;15.938;2023-03-07T12:10:11;97421.45;;;18.12;47.39
74466;BME280;62916;50.044;15.938;2023-03-07T12:12:51;97425.11;;;18.11;47.46
74466;BME280;62916;50.044;15.938;2023-03-07T12:15:33;97421.09;;;18.11;47.33
74466;BME280;62916;50.044;15.938;2023-03-07T12:18:17;97420.65;;;18.08;47.49
74466;BME280;62916;50.044;15.938;2023-03-07T12:20:59;97412.75;;;18.05;47.44
74466;BME280;62916;50.044;15.938;2023-03-07T12:23:39;97412.34;;;18.01;47.49
74466;BME280;62916;50.044;15.938;2023-03-07T12:26:14;97405.62;;;17.99;47.53
74466;BME280;62916;50.044;15.938;2023-03-07T12:28:50;97404.73;;;17.99;47.52
74466;BME280;62916;50.044;15.938;2023-03-07T12:31:24;97402.34;;;17.97;47.52
74466;BME280;62916;50.044;15.938;2023-03-07T12:34:00;97406.30;;;17.97;47.61
74466;BME280;62916;50.044;15.938;2023-03-07T12:36:37;97405.38;;;17.96;47.69
74466;BME280;62916;50.044;15.938;2023-03-07T12:39:16;97399.83;;;17.93;47.59
74466;BME280;62916;50.044;15.938;2023-03-07T12:41:59;97402.36;;;17.92;47.62
74466;BME280;62916;50.044;15.938;2023-03-07T12:44:35;97402.66;;;17.91;47.69
74466;BME280;62916;50.044;15.938;2023-03-07T12:47:14;97397.04;;;17.90;47.60
74466;BME280;62916;50.044;15.938;2023-03-07T12:49:50;97392.16;;;17.91;47.74
74466;BME280;62916;50.044;15.938;2023-03-07T12:52:30;97389.10;;;17.93;47.61
74466;BME280;62916;50.044;15.938;2023-03-07T12:55:17;97389.95;;;17.94;47.58
74466;BME280;62916;50.044;15.938;2023-03-07T12:57:56;97390.70;;;17.95;47.61
74466;BME280;62916;50.044;15.938;2023-03-07T13:00:32;97386.02;;;17.96;47.67
74466;BME280;62916;50.044;15.938;2023-03-07T13:03:05;97380.95;;;17.98;47.63
74466;BME280;62916;50.044;15.938;2023-03-07T13:05:37;97380.17;;;18.00;47.68
74466;BME280;62916;50.044;15.938;2023-03-07T13:08:09;97375.15;;;18.02;47.78
74466;BME280;62916;50.044;15.938;2023-03-07T13:10:46;97372.80;;;18.03;47.86
74466;BME280;62916;50.044;15.938;2023-03-07T13:16:43;97366.58;;;18.06;47.82
74466;BME280;62916;50.044;15.938;2023-03-07T13:19:46;97372.73;;;18.08;47.89
74466;BME280;62916;50.044;15.938;2023-03-07T13:22:56;97369.61;;;18.10;47.93
74466;BME280;62916;50.044;15.938;2023-03-07T13:25:58;97369.08;;;18.12;47.84
74466;BME280;62916;50.044;15.938;2023-03-07T13:28:35;97362.94;;;18.15;47.91